Time;durP1;ratioP1;P1;durP2;ratioP2;P2;SDS_P1;SDS_P2;PMS_P1;PMS_P2;Temp;Humidity;BMP_temperature;BMP_pressure;BME280_temperature;BME280_humidity;BME280_pressure;Samples;Min_cycle;Max_cycle;Signal;HPM_P1;HPM_P2
2023/11/14 00:02:24;;;;;;;14.88;6.28;;;;;;;8.49;nan;98553.13;5018146;27;97801;-76
2023/11/14 00:04:49;;;;;;;8.00;5.63;;;;;;;8.68;nan;98574.78;5035030;27;98136;-77
2023/11/14 00:07:15;;;;;;;7.35;5.07;;;;;;;8.75;nan;98580.50;5056852;27;97857;-75
2023/11/14 00:09:41;;;;;;;8.35;5.95;;;;;;;8.74;nan;98558.75;5012341;27;96777;-76
2023/11/14 00:12:06;;;;;;;11.10;6.47;;;;;;;8.92;nan;98572.59;5042182;27;96892;-75
2023/11/14 00:14:32;;;;;;;11.55;5.85;;;;;;;8.89;nan;98564.91;5032508;27;101195;-78
2023/11/14 00:16:58;;;;;;;7.95;5.28;;;;;;;9.03;nan;98583.31;5027309;28;100988;-76
2023/11/14 00:19:23;;;;;;;11.63;6.80;;;;;;;9.09;nan;98583.91;5033454;27;97319;-77
2023/11/14 00:21:50;;;;;;;10.90;6.93;;;;;;;8.96;nan;98562.78;5006026;28;97449;-77
2023/11/14 00:24:16;;;;;;;8.15;5.10;;;;;;;9.11;nan;98585.50;5024279;27;97456;-75
2023/11/14 00:26:41;;;;;;;8.65;6.13;;;;;;;9.07;nan;98570.88;5023449;27;98052;-76
2023/11/14 00:29:07;;;;;;;8.85;5.50;;;;;;;9.17;nan;98594.81;5052939;27;96634;-76
2023/11/14 00:31:33;;;;;;;6.22;4.25;;;;;;;9.03;nan;98567.59;5031849;27;96940;-76
2023/11/14 00:33:59;;;;;;;5.50;3.42;;;;;;;9.29;nan;98607.19;5027888;27;97720;-76
2023/11/14 00:36:25;;;;;;;6.30;3.15;;;;;;;9.26;nan;98617.84;4992020;27;101301;-76
2023/11/14 00:38:50;;;;;;;3.72;1.95;;;;;;;9.28;nan;98616.00;5053400;27;96798;-76
2023/11/14 00:41:17;;;;;;;3.35;1.85;;;;;;;9.25;nan;98601.31;5047003;27;97009;-76
2023/11/14 00:43:42;;;;;;;3.30;1.77;;;;;;;9.38;nan;98618.94;5026177;27;97963;-76
2023/11/14 00:46:12;;;;;;;1.35;1.08;;;;;;;9.42;nan;98625.69;5037232;27;98003;-78
2023/11/14 00:48:39;;;;;;;2.00;1.02;;;;;;;9.38;nan;98608.47;5021901;27;96812;-76
2023/11/14 00:51:04;;;;;;;3.72;1.15;;;;;;;9.50;nan;98620.84;5023322;27;96797;-79
2023/11/14 00:53:30;;;;;;;4.38;1.17;;;;;;;9.49;nan;98622.63;5031266;27;98521;-76
2023/11/14 00:55:55;;;;;;;4.78;1.10;;;;;;;9.37;nan;98609.41;5022256;28;101318;-76
2023/11/14 00:58:21;;;;;;;1.23;0.90;;;;;;;9.55;nan;98636.31;5058429;27;96966;-75
2023/11/14 01:00:47;;;;;;;1.40;0.82;;;;;;;9.61;nan;98649.06;5021337;27;96904;-78
2023/11/14 01:03:12;;;;;;;6.57;1.52;;;;;;;9.65;nan;98651.41;5011924;27;101224;-76
2023/11/14 01:05:38;;;;;;;2.70;1.08;;;;;;;9.57;nan;98637.06;5036616;27;101320;-76
2023/11/14 01:08:05;;;;;;;2.22;0.93;;;;;;;9.70;nan;98665.09;5018655;27;96735;-76
2023/11/14 01:10:30;;;;;;;2.28;0.90;;;;;;;9.74;nan;98671.88;5040546;27;96882;-76
2023/11/14 01:12:59;;;;;;;3.00;1.50;;;;;;;9.76;nan;98674.41;5024324;27;97828;-76
2023/11/14 01:15:25;;;;;;;2.00;1.17;;;;;;;9.80;nan;98675.91;5025702;28;100868;-76
2023/11/14 01:17:50;;;;;;;5.63;1.67;;;;;;;9.73;nan;98666.72;5014544;27;96826;-76
2023/11/14 01:20:16;;;;;;;5.80;1.30;;;;;;;9.85;nan;98689.59;5037201;27;97303;-78
2023/11/14 01:22:42;;;;;;;4.00;1.20;;;;;;;9.74;nan;98677.13;5036877;27;97885;-76
2023/11/14 01:25:08;;;;;;;3.15;1.33;;;;;;;9.90;nan;98700.66;5063172;27;97677;-76
2023/11/14 01:27:33;;;;;;;6.20;2.08;;;;;;;9.82;nan;98704.66;5038530;27;97239;-76
2023/11/14 01:29:59;;;;;;;6.20;2.42;;;;;;;9.88;nan;98712.16;5030851;27;96760;-76
2023/11/14 01:32:24;;;;;;;4.25;1.67;;;;;;;9.87;nan;98703.47;5005702;27;101362;-81
2023/11/14 01:34:50;;;;;;;7.85;1.77;;;;;;;9.94;nan;98706.56;5024315;27;100935;-77
2023/11/14 01:37:17;;;;;;;3.70;1.60;;;;;;;9.90;nan;98712.94;5024030;27;97177;-79
2023/11/14 01:39:44;;;;;;;4.55;1.48;;;;;;;9.87;nan;98711.34;5055585;27;96758;-76
2023/11/14 01:42:10;;;;;;;8.63;1.60;;;;;;;9.92;nan;98700.59;5030530;27;97588;-80
2023/11/14 01:44:36;;;;;;;6.47;1.80;;;;;;;10.02;nan;98725.34;5034383;27;97800;-76
2023/11/14 01:47:02;;;;;;;5.53;2.10;;;;;;;9.95;nan;98698.63;5001325;27;96979;-76
2023/11/14 01:49:28;;;;;;;5.63;2.45;;;;;;;10.14;nan;98723.78;5019587;27;96922;-76
2023/11/14 01:51:54;;;;;;;3.88;2.05;;;;;;;10.09;nan;98707.47;5016888;27;101524;-76
2023/11/14 01:54:20;;;;;;;3.40;1.60;;;;;;;10.21;nan;98725.16;5019021;27;97623;-77
2023/11/14 01:56:45;;;;;;;9.48;2.60;;;;;;;10.08;nan;98704.00;5036505;27;96890;-77
2023/11/14 01:59:11;;;;;;;8.05;2.13;;;;;;;10.06;nan;98698.00;5034533;27;96867;-76
2023/11/14 02:01:37;;;;;;;7.15;2.45;;;;;;;10.19;nan;98711.28;5015583;27;101139;-76
2023/11/14 02:04:09;;;;;;;8.05;2.03;;;;;;;10.28;nan;98718.63;5017685;27;101336;-75
2023/11/14 02:06:36;;;;;;;4.05;1.50;;;;;;;10.30;nan;98721.19;5022530;27;98019;-75
2023/11/14 02:09:01;;;;;;;4.50;1.92;;;;;;;10.12;nan;98702.91;5027310;27;96922;-76
2023/11/14 02:11:27;;;;;;;9.52;2.45;;;;;;;10.38;nan;98745.16;5034632;27;98013;-76
2023/11/14 02:13:53;;;;;;;9.45;1.75;;;;;;;10.17;nan;98715.75;5035194;27;101329;-76
2023/11/14 02:16:18;;;;;;;8.07;2.15;;;;;;;10.43;nan;98751.81;5050670;27;96870;-76
2023/11/14 02:18:44;;;;;;;4.53;1.95;;;;;;;10.46;nan;98742.09;5045775;27;96841;-75
2023/11/14 02:21:12;;;;;;;8.10;2.55;;;;;;;10.43;nan;98750.97;5052234;27;97308;-76
2023/11/14 02:23:40;;;;;;;9.38;2.33;;;;;;;10.29;nan;98717.69;4989932;28;101178;-76
2023/11/14 02:26:06;;;;;;;8.77;2.70;;;;;;;10.46;nan;98734.22;5007259;27;96900;-77
2023/11/14 02:28:32;;;;;;;10.98;2.97;;;;;;;10.42;nan;98721.28;5011990;27;97183;-76
2023/11/14 02:30:57;;;;;;;9.25;2.33;;;;;;;10.37;nan;98710.22;5022404;28;97862;-79
2023/11/14 02:33:23;;;;;;;11.10;2.45;;;;;;;10.51;nan;98734.81;5025371;27;98077;-76
2023/11/14 02:35:49;;;;;;;10.05;2.38;;;;;;;10.45;nan;98728.16;5024470;27;96829;-76
2023/11/14 02:38:14;;;;;;;9.52;2.42;;;;;;;10.58;nan;98755.31;5043581;27;98019;-76
2023/11/14 02:40:39;;;;;;;9.50;2.40;;;;;;;10.48;nan;98754.19;5025291;27;101243;-76
2023/11/14 02:43:05;;;;;;;5.45;2.00;;;;;;;10.58;nan;98765.81;5062769;27;97990;-75
2023/11/14 02:45:31;;;;;;;8.13;3.25;;;;;;;10.57;nan;98771.19;5018678;27;96675;-75
2023/11/14 02:47:56;;;;;;;7.13;2.05;;;;;;;10.58;nan;98762.38;5015924;28;97168;-76
2023/11/14 02:50:43;;;;;;;7.50;2.58;;;;;;;10.60;nan;98771.84;4999871;27;101257;-75
2023/11/14 02:53:09;;;;;;;10.13;2.45;;;;;;;10.50;nan;98748.84;5037867;27;98665;-76
2023/11/14 02:55:34;;;;;;;8.85;2.30;;;;;;;10.62;nan;98777.00;5034797;27;96908;-76
2023/11/14 02:58:00;;;;;;;8.50;1.95;;;;;;;10.62;nan;98777.00;5018411;27;97346;-76
2023/11/14 03:00:25;;;;;;;7.90;2.08;;;;;;;10.51;nan;98759.25;5022959;27;100847;-79
2023/11/14 03:02:51;;;;;;;11.75;2.08;;;;;;;10.61;nan;98776.13;5025146;27;97975;-76
2023/11/14 03:05:17;;;;;;;6.32;1.60;;;;;;;10.63;nan;98776.91;5021812;28;97146;-76
2023/11/14 03:07:43;;;;;;;7.45;2.70;;;;;;;10.54;nan;98755.63;5037240;27;96904;-76
2023/11/14 03:10:09;;;;;;;7.75;2.60;;;;;;;10.64;nan;98777.75;5054602;27;98067;-76
2023/11/14 03:12:35;;;;;;;9.35;2.50;;;;;;;10.55;nan;98766.00;5014434;27;101818;-76
2023/11/14 03:15:00;;;;;;;6.40;1.90;;;;;;;10.68;nan;98789.78;5056656;27;96717;-76
2023/11/14 03:17:26;;;;;;;14.32;2.60;;;;;;;10.64;nan;98786.44;5009697;28;96944;-79
2023/11/14 03:19:51;;;;;;;7.53;2.78;;;;;;;10.67;nan;98788.06;5069117;27;98809;-76
2023/11/14 03:22:18;;;;;;;7.97;1.95;;;;;;;10.57;nan;98774.66;5045507;27;97267;-76
2023/11/14 03:24:43;;;;;;;6.05;2.00;;;;;;;10.57;nan;98758.91;5021064;28;96689;-76
2023/11/14 03:27:09;;;;;;;6.93;2.00;;;;;;;10.61;nan;98770.88;5014064;28;96980;-76
2023/11/14 03:29:35;;;;;;;4.93;1.90;;;;;;;10.63;nan;98782.16;5044431;27;98043;-78
2023/11/14 03:32:00;;;;;;;7.63;2.60;;;;;;;10.67;nan;98787.22;5011540;28;101399;-76
2023/11/14 03:34:26;;;;;;;8.93;2.58;;;;;;;10.67;nan;98790.69;5035183;27;97001;-80
2023/11/14 03:36:56;;;;;;;7.38;1.67;;;;;;;10.50;nan;98768.06;5040025;27;97108;-76
2023/11/14 03:39:22;;;;;;;8.05;2.45;;;;;;;10.64;nan;98791.69;5033767;27;101694;-77
2023/11/14 03:41:47;;;;;;;8.18;2.03;;;;;;;10.65;nan;98795.19;5010057;27;101109;-76
2023/11/14 03:44:13;;;;;;;10.30;2.15;;;;;;;10.73;nan;98808.69;5041393;27;96738;-76
2023/11/14 03:46:38;;;;;;;7.93;1.83;;;;;;;10.74;nan;98806.94;5027704;27;96794;-76
2023/11/14 03:49:05;;;;;;;8.90;1.88;;;;;;;10.73;nan;98792.09;5023290;27;100757;-76
2023/11/14 03:51:30;;;;;;;13.63;3.13;;;;;;;10.81;nan;98810.88;4997223;27;101374;-76
2023/11/14 03:53:56;;;;;;;5.47;1.88;;;;;;;10.79;nan;98812.75;5032071;27;96787;-76
2023/11/14 03:56:21;;;;;;;6.97;1.98;;;;;;;10.83;nan;98819.50;5044781;27;97378;-83
2023/11/14 03:58:49;;;;;;;10.02;2.28;;;;;;;10.79;nan;98818.84;5017451;27;100750;-79
2023/11/14 04:01:15;;;;;;;7.47;1.77;;;;;;;10.75;nan;98816.50;5060233;27;97565;-76
2023/11/14 04:03:41;;;;;;;10.27;2.20;;;;;;;10.78;nan;98819.78;5018898;27;96812;-76
2023/11/14 04:06:12;;;;;;;4.97;2.30;;;;;;;10.75;nan;98827.00;5040047;27;97560;-76
2023/11/14 04:08:38;;;;;;;8.50;1.80;;;;;;;10.75;nan;98832.22;5018883;27;101372;-76
2023/11/14 04:11:03;;;;;;;8.05;1.85;;;;;;;10.80;nan;98838.91;5057533;27;97861;-76
2023/11/14 04:13:29;;;;;;;13.77;1.90;;;;;;;10.76;nan;98836.53;5039599;27;97182;-76
2023/11/14 04:15:55;;;;;;;9.82;1.88;;;;;;;10.73;nan;98834.09;5046790;27;97034;-76
2023/11/14 04:18:20;;;;;;;10.48;1.95;;;;;;;10.74;nan;98827.94;5035922;27;101054;-76
2023/11/14 04:20:46;;;;;;;10.25;2.20;;;;;;;10.66;nan;98817.88;5025323;27;97500;-76
2023/11/14 04:23:12;;;;;;;9.25;1.77;;;;;;;10.74;nan;98822.69;5016939;27;97536;-82
2023/11/14 04:25:37;;;;;;;9.25;1.88;;;;;;;10.72;nan;98829.78;5038697;27;97000;-79
2023/11/14 04:28:03;;;;;;;8.15;1.80;;;;;;;10.75;nan;98827.81;5024617;27;97748;-76
2023/11/14 04:30:29;;;;;;;7.93;1.90;;;;;;;10.80;nan;98841.53;5023098;28;100902;-76
2023/11/14 04:32:54;;;;;;;13.70;3.03;;;;;;;10.72;nan;98832.41;5034741;27;96839;-76
2023/11/14 04:35:20;;;;;;;13.38;2.40;;;;;;;10.75;nan;98840.94;5049369;27;96927;-76
2023/11/14 04:37:48;;;;;;;4.28;1.67;;;;;;;10.72;nan;98842.91;5055649;27;97512;-75
2023/11/14 04:40:14;;;;;;;10.70;2.17;;;;;;;10.70;nan;98845.63;5013599;27;97836;-75
2023/11/14 04:42:39;;;;;;;7.80;2.33;;;;;;;10.65;nan;98837.19;5041866;27;96765;-79
2023/11/14 04:45:06;;;;;;;7.57;2.55;;;;;;;10.73;nan;98853.31;5007233;27;96974;-76
2023/11/14 04:47:33;;;;;;;11.07;1.83;;;;;;;10.73;nan;98860.34;5028320;27;101468;-77
2023/11/14 04:49:58;;;;;;;11.73;1.77;;;;;;;10.80;nan;98865.16;5034782;27;97949;-75
2023/11/14 04:52:24;;;;;;;9.30;2.40;;;;;;;10.79;nan;98865.22;5053859;27;96999;-76
2023/11/14 04:54:49;;;;;;;12.60;2.65;;;;;;;10.79;nan;98866.09;5023534;27;97076;-76
2023/11/14 04:57:15;;;;;;;9.63;1.80;;;;;;;10.75;nan;98868.97;5024818;28;101267;-76
2023/11/14 04:59:40;;;;;;;6.00;2.13;;;;;;;10.73;nan;98865.59;5051866;27;97540;-76
2023/11/14 05:02:06;;;;;;;8.50;2.42;;;;;;;10.79;nan;98878.34;5049689;27;97043;-76
2023/11/14 05:04:31;;;;;;;7.20;2.08;;;;;;;10.79;nan;98883.59;5034521;27;97192;-76
2023/11/14 05:06:57;;;;;;;9.48;2.33;;;;;;;10.77;nan;98888.97;5030967;27;101216;-76
2023/11/14 05:09:23;;;;;;;7.45;2.38;;;;;;;10.77;nan;98885.50;4985731;27;1206230;-75
2023/11/14 05:11:48;;;;;;;10.13;2.30;;;;;;;10.71;nan;98876.19;5030670;27;96814;-74
2023/11/14 05:14:14;;;;;;;12.63;2.67;;;;;;;10.82;nan;98894.81;5025351;28;96902;-74
2023/11/14 05:16:40;;;;;;;9.07;2.75;;;;;;;10.86;nan;98903.34;5042406;27;101141;-74
2023/11/14 05:19:07;;;;;;;10.73;3.13;;;;;;;10.88;nan;98904.09;4999181;27;101665;-76
2023/11/14 05:21:33;;;;;;;7.43;2.03;;;;;;;10.66;nan;98872.97;5068723;27;97235;-74
2023/11/14 05:23:59;;;;;;;8.82;2.67;;;;;;;10.83;nan;98899.09;5041766;27;96914;-74
2023/11/14 05:26:25;;;;;;;8.63;2.15;;;;;;;10.90;nan;98902.22;5023016;27;100412;-82
2023/11/14 05:28:50;;;;;;;7.35;2.00;;;;;;;10.85;nan;98886.75;5042302;27;97729;-76
2023/11/14 05:31:16;;;;;;;7.95;2.25;;;;;;;10.97;nan;98893.06;5025772;27;97215;-76
2023/11/14 05:33:41;;;;;;;9.43;2.50;;;;;;;10.92;nan;98892.47;5044079;27;97333;-76
2023/11/14 05:36:07;;;;;;;7.32;1.83;;;;;;;10.94;nan;98898.50;5044794;27;97417;-76
2023/11/14 05:38:33;;;;;;;15.23;2.28;;;;;;;10.97;nan;98893.06;5025232;27;101463;-77
2023/11/14 05:40:58;;;;;;;7.40;2.63;;;;;;;11.02;nan;98893.63;5010206;27;97040;-76
2023/11/14 05:43:24;;;;;;;8.25;2.72;;;;;;;11.01;nan;98893.72;5021980;27;97207;-75
2023/11/14 05:45:51;;;;;;;7.95;2.55;;;;;;;10.97;nan;98889.59;5031255;27;97390;-76
2023/11/14 05:48:19;;;;;;;11.57;2.75;;;;;;;10.94;nan;98881.88;5060507;27;97406;-77
2023/11/14 05:50:46;;;;;;;12.00;2.58;;;;;;;10.99;nan;98892.97;5053800;27;96657;-76
2023/11/14 05:53:11;;;;;;;7.28;2.30;;;;;;;10.98;nan;98889.50;5041350;27;96837;-76
2023/11/14 05:55:37;;;;;;;12.88;2.50;;;;;;;10.96;nan;98888.72;5032910;27;97488;-76
2023/11/14 05:58:03;;;;;;;12.52;2.10;;;;;;;10.79;nan;98868.72;5019138;27;101154;-76
2023/11/14 06:00:28;;;;;;;8.90;2.20;;;;;;;10.90;nan;98886.47;5052436;27;97064;-76
2023/11/14 06:02:54;;;;;;;14.65;2.10;;;;;;;10.87;nan;98903.22;5032272;27;97330;-76
2023/11/14 06:05:20;;;;;;;7.82;2.65;;;;;;;10.78;nan;98885.38;5029553;27;97381;-77
2023/11/14 06:07:45;;;;;;;10.77;3.35;;;;;;;10.81;nan;98900.97;5030242;27;99563;-76
2023/11/14 06:10:11;;;;;;;14.25;2.72;;;;;;;10.86;nan;98921.72;5018324;27;97262;-76
2023/11/14 06:12:39;;;;;;;9.50;2.15;;;;;;;10.84;nan;98927.03;5028681;27;97636;-76
2023/11/14 06:15:09;;;;;;;8.60;2.83;;;;;;;10.77;nan;98919.63;5006239;27;101266;-75
2023/11/14 06:17:34;;;;;;;10.00;2.33;;;;;;;10.79;nan;98921.22;5027394;27;97854;-76
2023/11/14 06:20:00;;;;;;;10.70;2.10;;;;;;;10.62;nan;98890.69;5018731;27;98565;-75
2023/11/14 06:22:26;;;;;;;9.95;2.67;;;;;;;10.72;nan;98906.75;5037260;27;97083;-76
2023/11/14 06:24:51;;;;;;;7.57;2.22;;;;;;;10.95;nan;98929.06;5026039;27;100908;-75
2023/11/14 06:27:16;;;;;;;12.13;2.50;;;;;;;10.84;nan;98923.56;5023429;27;101276;-79
2023/11/14 06:29:42;;;;;;;18.25;3.60;;;;;;;10.98;nan;98942.00;5044546;27;96723;-75
2023/11/14 06:32:08;;;;;;;17.65;4.20;;;;;;;10.94;nan;98921.25;5063364;27;97309;-75
2023/11/14 06:34:33;;;;;;;11.52;3.58;;;;;;;11.06;nan;98941.56;5030711;27;100980;-77
2023/11/14 06:36:59;;;;;;;12.13;3.03;;;;;;;11.16;nan;98936.63;5026476;27;100932;-76
2023/11/14 06:39:24;;;;;;;14.13;2.45;;;;;;;11.14;nan;98938.47;5028861;27;96749;-75
2023/11/14 06:41:51;;;;;;;12.20;3.28;;;;;;;11.17;nan;98943.56;5008200;28;97479;-75
2023/11/14 06:44:20;;;;;;;14.27;4.00;;;;;;;11.14;nan;98949.00;5015431;27;101247;-81
2023/11/14 06:46:46;;;;;;;14.15;3.85;;;;;;;11.16;nan;98934.84;5018161;27;100656;-75
2023/11/14 06:49:12;;;;;;;8.48;3.28;;;;;;;11.21;nan;98937.22;5016501;27;97136;-77
2023/11/14 06:51:37;;;;;;;10.68;3.25;;;;;;;11.32;nan;98948.78;5028824;27;98126;-75
2023/11/14 06:54:03;;;;;;;14.18;3.17;;;;;;;11.40;nan;98945.69;5036731;27;97923;-75
2023/11/14 06:56:31;;;;;;;17.48;3.38;;;;;;;11.60;nan;98964.69;5035648;27;98790;-73
2023/11/14 06:58:57;;;;;;;11.98;2.75;;;;;;;11.79;nan;98954.75;5029031;27;97294;-80
2023/11/14 07:01:22;;;;;;;11.15;3.55;;;;;;;11.92;nan;98939.94;5053518;27;97104;-79
2023/11/14 07:03:49;;;;;;;10.48;2.40;;;;;;;12.15;nan;98967.47;5023403;27;98018;-74
2023/11/14 07:06:16;;;;;;;11.10;2.20;;;;;;;12.10;nan;98960.78;5054545;27;97376;-74
2023/11/14 07:08:42;;;;;;;6.50;2.00;;;;;;;12.22;nan;98960.06;5048185;27;96949;-75
2023/11/14 07:11:09;;;;;;;10.60;2.65;;;;;;;12.40;nan;98952.78;5057642;27;96782;-75
2023/11/14 07:13:35;;;;;;;10.25;2.38;;;;;;;12.69;nan;98962.31;5074790;27;97643;-75
2023/11/14 07:16:00;;;;;;;14.57;2.65;;;;;;;12.81;nan;98950.13;5056369;27;100734;-74
2023/11/14 07:18:31;;;;;;;15.63;2.95;;;;;;;13.12;nan;98956.88;5036909;27;96605;-75
2023/11/14 07:24:58;;;;;;;9.02;2.50;;;;;;;13.68;nan;98945.28;5071848;27;96951;-77
2023/11/14 07:27:26;;;;;;;9.30;2.95;;;;;;;13.88;nan;98923.66;5056193;27;97503;-76
2023/11/14 07:29:51;;;;;;;14.10;2.90;;;;;;;14.27;nan;98948.19;5073899;27;96840;-76
2023/11/14 07:32:17;;;;;;;18.80;3.53;;;;;;;14.42;nan;98948.88;5039438;27;96817;-74
2023/11/14 07:34:43;;;;;;;12.57;2.58;;;;;;;14.63;nan;98943.88;5034719;27;97916;-75
2023/11/14 07:37:09;;;;;;;6.55;2.47;;;;;;;14.91;nan;98935.63;5022532;27;101099;-79
2023/11/14 07:39:35;;;;;;;8.07;2.33;;;;;;;15.11;nan;98934.16;5013713;28;97016;-80
2023/11/14 07:42:01;;;;;;;8.43;2.33;;;;;;;15.28;nan;98926.78;5020035;27;97366;-78
2023/11/14 07:44:26;;;;;;;6.22;2.38;;;;;;;14.98;nan;98917.53;5025044;27;97577;-77
2023/11/14 07:46:52;;;;;;;6.93;2.20;;;;;;;15.40;nan;98936.41;5029723;27;98256;-77
2023/11/14 07:49:17;;;;;;;6.43;2.45;;;;;;;15.67;nan;98925.50;5030069;27;96945;-78
2023/11/14 07:51:43;;;;;;;7.72;2.28;;;;;;;16.01;nan;98928.22;5015693;27;97482;-78
2023/11/14 07:54:10;;;;;;;8.85;3.20;;;;;;;16.25;nan;98933.38;5002827;27;101656;-76
2023/11/14 07:56:40;;;;;;;13.02;3.35;;;;;;;16.35;nan;98920.25;5010003;27;100036;-78
2023/11/14 07:59:06;;;;;;;7.15;2.83;;;;;;;16.77;nan;98920.44;5032817;27;97279;-81
2023/11/14 08:01:32;;;;;;;10.30;2.83;;;;;;;16.18;nan;98932.22;5012583;27;97761;-79
2023/11/14 08:03:58;;;;;;;11.75;2.85;;;;;;;16.30;nan;98931.22;5028662;27;97553;-78
2023/11/14 08:06:23;;;;;;;8.90;3.08;;;;;;;16.59;nan;98912.16;5040160;27;101441;-73
2023/11/14 08:08:49;;;;;;;9.07;2.47;;;;;;;16.87;nan;98930.19;5017212;27;99711;-78
2023/11/14 08:11:15;;;;;;;7.38;2.80;;;;;;;16.42;nan;98932.03;5035020;27;98178;-79
2023/11/14 08:13:40;;;;;;;10.20;3.67;;;;;;;16.50;nan;98943.72;5019563;27;101571;-79
2023/11/14 08:16:06;;;;;;;7.78;2.83;;;;;;;16.14;nan;98950.09;5020107;27;100021;-77
2023/11/14 08:18:32;;;;;;;13.63;3.00;;;;;;;16.46;nan;98944.94;5005687;27;96808;-77
2023/11/14 08:20:57;;;;;;;16.17;2.63;;;;;;;17.03;nan;98924.44;5019036;27;97355;-79
2023/11/14 08:23:23;;;;;;;13.40;3.88;;;;;;;17.43;nan;98923.75;5039173;27;99420;-77
2023/11/14 08:25:48;;;;;;;17.25;3.40;;;;;;;17.95;nan;98950.31;5036023;27;97399;-76
2023/11/14 08:28:14;;;;;;;10.15;3.47;;;;;;;17.32;nan;98953.00;5009572;27;97550;-78
2023/11/14 08:30:40;;;;;;;15.00;4.43;;;;;;;16.76;nan;98951.41;5050465;27;98215;-78
2023/11/14 08:33:07;;;;;;;11.02;3.13;;;;;;;16.30;nan;98966.47;5050001;27;98084;-78
2023/11/14 08:35:33;;;;;;;13.52;3.25;;;;;;;16.04;nan;98980.91;5033758;27;97690;-79
2023/11/14 08:37:59;;;;;;;12.65;3.15;;;;;;;16.05;nan;98990.53;5030362;27;97898;-79
2023/11/14 08:40:28;;;;;;;11.25;3.20;;;;;;;15.63;nan;98971.69;5034839;27;96851;-79
2023/11/14 08:42:54;;;;;;;17.27;3.20;;;;;;;15.44;nan;98974.88;5036335;27;97734;-79
2023/11/14 08:45:20;;;;;;;12.25;3.00;;;;;;;15.59;nan;98981.66;5045132;27;97826;-79
2023/11/14 08:47:46;;;;;;;15.75;3.33;;;;;;;15.80;nan;98996.91;5020265;27;96865;-79
2023/11/14 08:50:12;;;;;;;10.82;2.97;;;;;;;16.05;nan;98993.19;5022001;27;97054;-79
2023/11/14 08:52:39;;;;;;;17.88;3.58;;;;;;;16.06;nan;99002.84;5011107;27;101268;-79
2023/11/14 08:55:06;;;;;;;10.20;2.83;;;;;;;15.85;nan;99000.00;5024655;27;101648;-79
2023/11/14 08:57:33;;;;;;;10.95;3.95;;;;;;;15.92;nan;99003.88;5025623;27;97447;-79
2023/11/14 08:59:59;;;;;;;13.05;3.45;;;;;;;15.92;nan;98995.13;5049853;27;97232;-79
2023/11/14 09:02:25;;;;;;;7.30;2.20;;;;;;;15.83;nan;98992.22;5041340;27;98090;-80
2023/11/14 09:04:50;;;;;;;9.15;3.20;;;;;;;16.01;nan;99004.97;5023166;27;97931;-80
2023/11/14 09:07:16;;;;;;;12.10;3.60;;;;;;;16.76;nan;98993.81;5039340;27;97367;-79
2023/11/14 09:09:47;;;;;;;7.28;2.10;;;;;;;17.28;nan;98994.84;5026068;27;97798;-79
2023/11/14 09:12:13;;;;;;;8.45;2.47;;;;;;;17.37;nan;98993.25;5011972;27;97968;-78
2023/11/14 09:14:38;;;;;;;6.93;2.42;;;;;;;17.59;nan;98982.50;5052269;27;97412;-79
2023/11/14 09:17:04;;;;;;;9.15;2.58;;;;;;;18.15;nan;99002.59;5031933;27;96782;-80
2023/11/14 09:19:31;;;;;;;13.20;3.92;;;;;;;17.49;nan;98997.53;5055472;27;96911;-82
2023/11/14 09:21:58;;;;;;;10.63;2.50;;;;;;;17.82;nan;98991.19;5044839;27;98078;-82
2023/11/14 09:24:23;;;;;;;7.72;2.50;;;;;;;16.82;nan;98963.31;5016814;27;101747;-76
2023/11/14 09:26:49;;;;;;;12.10;3.30;;;;;;;16.49;nan;98992.38;5023128;28;96768;-76
2023/11/14 09:29:15;;;;;;;13.43;2.90;;;;;;;16.17;nan;98967.56;5027716;27;96968;-76
2023/11/14 09:31:40;;;;;;;15.90;3.35;;;;;;;16.01;nan;98999.69;5039728;27;98085;-74
2023/11/14 09:34:06;;;;;;;13.82;3.38;;;;;;;15.67;nan;98989.00;5025120;27;97784;-78
2023/11/14 09:36:31;;;;;;;12.40;2.58;;;;;;;15.47;nan;98965.88;5013454;27;97438;-76
2023/11/14 09:38:57;;;;;;;17.17;3.47;;;;;;;15.47;nan;98992.31;5047830;27;97066;-76
2023/11/14 09:41:23;;;;;;;11.00;2.58;;;;;;;15.42;nan;98989.16;5026792;27;97447;-76
2023/11/14 09:43:49;;;;;;;8.90;2.50;;;;;;;15.16;nan;98984.88;5034229;27;97551;-76
2023/11/14 09:46:15;;;;;;;8.63;2.67;;;;;;;15.06;nan;98989.16;5024139;27;97177;-76
2023/11/14 09:48:41;;;;;;;7.28;2.55;;;;;;;14.90;nan;99010.56;5042339;27;97292;-78
2023/11/14 09:51:07;;;;;;;7.65;2.72;;;;;;;14.65;nan;98978.97;5030381;27;97549;-79
2023/11/14 09:53:34;;;;;;;10.60;3.28;;;;;;;14.83;nan;99009.31;5022547;27;100925;-77
2023/11/14 09:56:00;;;;;;;11.98;3.53;;;;;;;14.85;nan;99006.56;5045651;27;96805;-80
2023/11/14 09:58:25;;;;;;;12.63;3.50;;;;;;;14.90;nan;98984.16;5020098;27;97449;-76
2023/11/14 10:00:51;;;;;;;10.23;2.63;;;;;;;14.77;nan;98993.91;5021660;27;97434;-76
2023/11/14 10:03:21;;;;;;;15.32;2.95;;;;;;;14.61;nan;98988.91;5042376;27;97327;-79
2023/11/14 10:05:47;;;;;;;8.90;2.67;;;;;;;14.51;nan;98979.91;5028703;27;96780;-78
2023/11/14 10:08:13;;;;;;;7.85;2.53;;;;;;;14.35;nan;98964.31;5058535;27;96779;-78
2023/11/14 10:10:42;;;;;;;6.40;2.25;;;;;;;14.34;nan;98974.97;5024580;27;97485;-77
2023/11/14 10:13:20;;;;;;;11.82;3.17;;;;;;;14.38;nan;98990.50;5029770;27;98227;-79
2023/11/14 10:15:45;;;;;;;10.32;3.45;;;;;;;14.36;nan;98978.38;5017035;27;98239;-77
2023/11/14 10:18:11;;;;;;;7.90;2.58;;;;;;;14.42;nan;98984.03;5046503;27;97031;-77
2023/11/14 10:20:38;;;;;;;6.47;2.70;;;;;;;14.35;nan;98989.88;5044113;27;97451;-76
2023/11/14 10:23:04;;;;;;;8.25;2.05;;;;;;;14.25;nan;98990.53;5010938;28;97493;-76
2023/11/14 10:25:31;;;;;;;9.73;2.90;;;;;;;14.04;nan;98978.81;5023103;27;98237;-75
2023/11/14 10:28:04;;;;;;;7.75;2.72;;;;;;;14.19;nan;99000.66;5068089;27;97146;-76
2023/11/14 10:30:42;;;;;;;12.57;2.60;;;;;;;14.16;nan;99011.44;5037570;27;97302;-76
2023/11/14 10:33:08;;;;;;;6.43;1.95;;;;;;;14.05;nan;98985.81;5042063;27;97660;-80
2023/11/14 10:35:33;;;;;;;13.63;2.78;;;;;;;14.04;nan;98974.38;5028374;27;96752;-76
2023/11/14 10:38:16;;;;;;;11.65;3.28;;;;;;;14.03;nan;98964.78;5042140;27;96825;-84
2023/11/14 10:40:49;;;;;;;16.15;4.15;;;;;;;14.12;nan;98960.66;5066447;27;98484;-81
2023/11/14 10:43:31;;;;;;;6.28;2.03;;;;;;;14.18;nan;98980.50;5013069;28;100080;-75
2023/11/14 10:46:01;;;;;;;10.65;3.20;;;;;;;14.09;nan;98965.31;5036730;27;97085;-76
2023/11/14 10:48:26;;;;;;;10.73;2.47;;;;;;;14.05;nan;98959.41;5045214;27;97052;-77
2023/11/14 10:50:52;;;;;;;8.05;2.42;;;;;;;13.93;nan;98942.66;5035596;27;97512;-76
2023/11/14 10:53:18;;;;;;;13.70;2.67;;;;;;;14.17;nan;98974.38;5022081;27;97888;-77
2023/11/14 10:55:46;;;;;;;5.38;1.83;;;;;;;14.04;nan;98955.06;5028082;27;96792;-77
2023/11/14 10:58:13;;;;;;;12.85;2.85;;;;;;;14.16;nan;98966.56;5021152;27;97337;-76
2023/11/14 11:00:39;;;;;;;11.05;2.90;;;;;;;14.23;nan;98954.66;5019652;27;98239;-77
2023/11/14 11:03:05;;;;;;;6.35;2.05;;;;;;;14.11;nan;98960.75;5026032;27;97350;-76
2023/11/14 11:05:32;;;;;;;10.98;3.05;;;;;;;14.15;nan;98951.69;5016921;27;98070;-77
2023/11/14 11:07:59;;;;;;;9.20;2.80;;;;;;;14.04;nan;98955.91;5026560;27;96944;-77
2023/11/14 11:10:31;;;;;;;11.85;2.42;;;;;;;14.00;nan;98927.22;5038525;27;97667;-77
2023/11/14 11:12:58;;;;;;;12.20;2.33;;;;;;;14.13;nan;98945.66;5025697;27;97551;-77
2023/11/14 11:15:23;;;;;;;6.28;2.50;;;;;;;14.13;nan;98959.72;5013287;27;96781;-80
2023/11/14 11:17:49;;;;;;;8.20;2.40;;;;;;;14.17;nan;98965.63;5032790;27;96892;-77
2023/11/14 11:20:26;;;;;;;6.90;2.08;;;;;;;14.16;nan;98933.09;5008819;27;97468;-77
2023/11/14 11:23:14;;;;;;;11.55;3.10;;;;;;;14.12;nan;98946.63;5034000;27;97451;-77
2023/11/14 11:25:44;;;;;;;6.90;2.53;;;;;;;14.20;nan;98957.50;5026253;27;96694;-77
2023/11/14 11:28:21;;;;;;;11.02;2.95;;;;;;;14.18;nan;98952.31;5048730;27;96866;-77
2023/11/14 11:31:08;;;;;;;7.05;2.53;;;;;;;14.14;nan;98961.41;5034048;27;98127;-80
2023/11/14 11:33:35;;;;;;;10.48;2.25;;;;;;;13.87;nan;98927.22;5037652;27;97261;-75
2023/11/14 11:36:29;;;;;;;9.45;2.90;;;;;;;14.11;nan;98960.75;5027178;27;96793;-76
2023/11/14 11:39:05;;;;;;;7.97;2.50;;;;;;;14.11;nan;98966.91;5052599;27;96744;-77
2023/11/14 11:41:35;;;;;;;8.98;2.25;;;;;;;14.06;nan;98947.06;5027528;27;97524;-77
2023/11/14 11:44:03;;;;;;;7.88;2.70;;;;;;;14.01;nan;98944.75;5031388;27;97792;-74
2023/11/14 11:46:45;;;;;;;11.50;2.53;;;;;;;13.86;nan;98940.53;5049741;27;96778;-75
2023/11/14 11:49:12;;;;;;;14.18;3.35;;;;;;;13.84;nan;98950.34;5021273;27;97176;-79